Sign in

Advertise on goboko.com

You can reach many thousands of active pilots each month by advertising on goboko.com.

Please contact us for details.

Advertising

Info

Aviation weather - KJYO

METAR KJYO 020215Z AUTO 00000KT 10SM SCT065 BKN075 OVC090 25/25 A2999 RMK AO2

TAF KIAD 312325Z 0100/0206 00000KT 6SM -SHRA OVC060 FM010400 19004KT P6SM OVC050 FM011500 25007KT P6SM BKN045 FM012000 26007KT P6SM SCT050 FM012300 25005KT P6SM SCT200 FM020200 00000KT P6SM FEW250

ADDS Experimental. Do not use for flight-related decisions.

Javascript required. Ce site nécessite javascript